Impacts METAR Board
IDs:

KFLL - Ft Lauderdale-Hollyw, FL, US

Updated at: 2100 UTC 21 May 2022
Potential Impact None Slight Moderate High
Time 21/09Z 21/10Z 21/11Z 21/12Z 21/13Z 21/14Z 21/15Z 21/16Z 21/17Z 21/18Z 21/19Z 21/20Z 21/21Z
Temp81 81 82 82 83 84 85 86 86 86 86 86 86
Dewpt78 78 78 78 77 77 77 77 77 77 77 77 77
Altim30.10 30.10 30.11 30.12 30.12 30.14 30.15 30.16 30.16 30.16 30.15 30.13 30.12
VIS10 10 10 10 10 10 10 10 10 10 10 10 10
CIG24 28 18 -- 24 31 33 28 22 28 26 34 37
CoverBKNBKNBKNSCTBKNBKNBKNBKNBKNBKNBKNBKNBKN
FltCatMVFRMVFRMVFRVFRMVFRVFRVFRMVFRMVFRMVFRMVFRVFRVFR
WX--------------------------
WDir130130130140130130130130150130120110130
WSpd12 10 11 9 13 14 17 15 14 15 15 13 12
WGst-- -- -- -- -- -- -- -- -- 19 -- 20 --
Raw hourly METARs
KFLL 210853Z 13012KT 10SM SCT016 BKN024 27/26 A3010 RMK AO2 SLP192 T02720256 55000
KFLL 210953Z 13010KT 10SM SCT015 BKN028 27/26 A3010 RMK AO2 SLP192 T02720256
KFLL 211053Z 13011KT 10SM BKN018 28/26 A3011 RMK AO2 SLP196 T02780256
KFLL 211153Z 14009KT 10SM SCT021 SCT180 28/26 A3012 RMK AO2 SLP199 70001 T02780256 10278 20272 53008
KFLL 211253Z 13013KT 10SM SCT018 BKN024 BKN180 28/25 A3012 RMK AO2 SLP200 T02830250
KFLL 211353Z 13014KT 10SM SCT021 BKN031 BKN200 29/25 A3014 RMK AO2 SLP206 T02890250
KFLL 211453Z 13017KT 10SM FEW017 SCT027 BKN033 29/25 A3015 RMK AO2 SLP208 T02940250 53008
KFLL 211553Z 13015KT 10SM SCT019 BKN028 30/25 A3016 RMK AO2 SLP214 T03000250
KFLL 211653Z 15014KT 10SM BKN022 BKN150 30/25 A3016 RMK AO2 SLP214 T03000250
KFLL 211753Z 13015G19KT 10SM SCT021 BKN028 BKN150 30/25 A3016 RMK AO2 SLP212 T03000250 10306 20278 50004
KFLL 211853Z 12015KT 10SM SCT018 BKN026 BKN036 30/25 A3015 RMK AO2 SLP208 T03000250
KFLL 211953Z 11013G20KT 10SM SCT019 BKN034 30/25 A3013 RMK AO2 SLP203 T03000250 $
KFLL 212053Z 13012KT 10SM SCT021 BKN037 BKN250 30/25 A3012 RMK AO2 SLP199 T03000250 56009 $



Page loaded:  21:23 UTC  |   02:23 PM Pacific  |   03:23 PM Mountain  |   04:23 PM Central  |   05:23 PM Eastern

 

ADVISORIES

FORECASTS

FORECASTS

OBSERVATIONS

USER TOOLS

ABOUT US